sensor_id;sensor_type;location;lat;lon;timestamp;pressure;altitude;pressure_sealevel;temperature;humidity
13705;BME280;6924;52.122;9.952;2023-04-07T00:00:11;100633.38;;;2.85;74.99
13705;BME280;6924;52.122;9.952;2023-04-07T00:02:38;100630.00;;;2.83;74.80
13705;BME280;6924;52.122;9.952;2023-04-07T00:05:05;100625.47;;;2.77;75.11
13705;BME280;6924;52.122;9.952;2023-04-07T00:07:33;100630.75;;;2.74;75.26
13705;BME280;6924;52.122;9.952;2023-04-07T00:09:59;100630.66;;;2.68;75.74
13705;BME280;6924;52.122;9.952;2023-04-07T00:12:26;100632.63;;;2.68;75.68
13705;BME280;6924;52.122;9.952;2023-04-07T00:14:52;100627.28;;;2.66;75.56
13705;BME280;6924;52.122;9.952;2023-04-07T00:17:18;100625.28;;;2.62;76.08
13705;BME280;6924;52.122;9.952;2023-04-07T00:19:45;100623.34;;;2.62;76.05
13705;BME280;6924;52.122;9.952;2023-04-07T00:22:11;100619.09;;;2.60;76.22
13705;BME280;6924;52.122;9.952;2023-04-07T00:24:39;100620.47;;;2.57;76.17
13705;BME280;6924;52.122;9.952;2023-04-07T00:27:05;100627.69;;;2.53;75.84
13705;BME280;6924;52.122;9.952;2023-04-07T00:29:32;100626.00;;;2.52;76.17
13705;BME280;6924;52.122;9.952;2023-04-07T00:31:58;100623.72;;;2.49;76.03
13705;BME280;6924;52.122;9.952;2023-04-07T00:34:24;100621.72;;;2.44;76.17
13705;BME280;6924;52.122;9.952;2023-04-07T00:36:51;100626.16;;;2.40;76.46
13705;BME280;6924;52.122;9.952;2023-04-07T00:39:18;100621.06;;;2.37;76.82
13705;BME280;6924;52.122;9.952;2023-04-07T00:41:46;100624.97;;;2.36;76.78
13705;BME280;6924;52.122;9.952;2023-04-07T00:44:13;100628.25;;;2.33;76.93
13705;BME280;6924;52.122;9.952;2023-04-07T00:46:40;100627.69;;;2.31;76.87
13705;BME280;6924;52.122;9.952;2023-04-07T00:49:07;100618.72;;;2.29;77.05
13705;BME280;6924;52.122;9.952;2023-04-07T00:51:33;100628.47;;;2.26;76.79
13705;BME280;6924;52.122;9.952;2023-04-07T00:54:01;100619.50;;;2.24;76.80
13705;BME280;6924;52.122;9.952;2023-04-07T00:56:27;100620.28;;;2.20;76.93
13705;BME280;6924;52.122;9.952;2023-04-07T00:58:55;100615.81;;;2.19;77.13
13705;BME280;6924;52.122;9.952;2023-04-07T01:01:24;100619.44;;;2.19;77.22
13705;BME280;6924;52.122;9.952;2023-04-07T01:03:57;100617.66;;;2.13;77.27
13705;BME280;6924;52.122;9.952;2023-04-07T01:06:27;100621.81;;;2.11;77.17
13705;BME280;6924;52.122;9.952;2023-04-07T01:09:01;100616.78;;;2.08;77.36
13705;BME280;6924;52.122;9.952;2023-04-07T01:11:35;100611.19;;;2.08;76.79
13705;BME280;6924;52.122;9.952;2023-04-07T01:14:05;100611.09;;;2.02;76.95
13705;BME280;6924;52.122;9.952;2023-04-07T01:16:34;100603.78;;;1.96;76.89
13705;BME280;6924;52.122;9.952;2023-04-07T01:19:08;100608.78;;;1.94;77.29
13705;BME280;6924;52.122;9.952;2023-04-07T01:21:39;100605.09;;;1.94;77.29
13705;BME280;6924;52.122;9.952;2023-04-07T01:24:26;100605.97;;;1.94;77.59
13705;BME280;6924;52.122;9.952;2023-04-07T01:27:04;100608.19;;;1.92;77.41
13705;BME280;6924;52.122;9.952;2023-04-07T01:29:41;100614.25;;;1.89;77.61
13705;BME280;6924;52.122;9.952;2023-04-07T01:32:13;100603.63;;;1.86;77.44
13705;BME280;6924;52.122;9.952;2023-04-07T01:34:40;100601.91;;;1.85;77.51
13705;BME280;6924;52.122;9.952;2023-04-07T01:37:07;100603.28;;;1.82;77.68
13705;BME280;6924;52.122;9.952;2023-04-07T01:39:35;100603.44;;;1.76;77.85
13705;BME280;6924;52.122;9.952;2023-04-07T01:42:05;100602.03;;;1.73;77.40
13705;BME280;6924;52.122;9.952;2023-04-07T01:44:33;100608.63;;;1.67;77.35
13705;BME280;6924;52.122;9.952;2023-04-07T01:47:02;100602.72;;;1.63;77.59
13705;BME280;6924;52.122;9.952;2023-04-07T01:49:29;100613.78;;;1.58;77.50
13705;BME280;6924;52.122;9.952;2023-04-07T01:51:56;100611.25;;;1.57;77.74
13705;BME280;6924;52.122;9.952;2023-04-07T01:54:23;100605.94;;;1.55;78.04
13705;BME280;6924;52.122;9.952;2023-04-07T01:56:51;100603.38;;;1.54;78.02
13705;BME280;6924;52.122;9.952;2023-04-07T01:59:17;100606.94;;;1.49;77.74
13705;BME280;6924;52.122;9.952;2023-04-07T02:01:44;100607.19;;;1.48;78.09
13705;BME280;6924;52.122;9.952;2023-04-07T02:04:15;100609.81;;;1.37;78.07
13705;BME280;6924;52.122;9.952;2023-04-07T02:06:49;100608.13;;;1.36;78.16
13705;BME280;6924;52.122;9.952;2023-04-07T02:09:19;100607.53;;;1.34;78.39
13705;BME280;6924;52.122;9.952;2023-04-07T02:11:47;100604.72;;;1.34;78.36
13705;BME280;6924;52.122;9.952;2023-04-07T02:14:15;100603.31;;;1.32;78.20
13705;BME280;6924;52.122;9.952;2023-04-07T02:16:42;100608.78;;;1.27;78.35
13705;BME280;6924;52.122;9.952;2023-04-07T02:19:09;100607.97;;;1.26;78.73
13705;BME280;6924;52.122;9.952;2023-04-07T02:21:38;100596.47;;;1.22;78.77
13705;BME280;6924;52.122;9.952;2023-04-07T02:24:06;100600.00;;;1.18;78.80
13705;BME280;6924;52.122;9.952;2023-04-07T02:26:33;100600.25;;;1.16;78.68
13705;BME280;6924;52.122;9.952;2023-04-07T02:29:00;100598.31;;;1.17;78.78
13705;BME280;6924;52.122;9.952;2023-04-07T02:31:27;100602.19;;;1.16;79.45
13705;BME280;6924;52.122;9.952;2023-04-07T02:33:53;100595.94;;;1.09;79.56
13705;BME280;6924;52.122;9.952;2023-04-07T02:36:20;100593.41;;;1.07;79.51
13705;BME280;6924;52.122;9.952;2023-04-07T02:38:48;100596.44;;;1.06;79.33
13705;BME280;6924;52.122;9.952;2023-04-07T02:41:14;100601.41;;;1.03;79.74
13705;BME280;6924;52.122;9.952;2023-04-07T02:43:40;100599.50;;;1.04;79.88
13705;BME280;6924;52.122;9.952;2023-04-07T02:46:07;100594.16;;;1.02;80.01
13705;BME280;6924;52.122;9.952;2023-04-07T02:48:33;100593.31;;;1.02;80.20
13705;BME280;6924;52.122;9.952;2023-04-07T02:51:00;100600.56;;;1.03;80.47
13705;BME280;6924;52.122;9.952;2023-04-07T02:53:26;100595.28;;;1.01;80.61
13705;BME280;6924;52.122;9.952;2023-04-07T02:55:54;100598.31;;;1.00;80.69
13705;BME280;6924;52.122;9.952;2023-04-07T02:58:23;100602.09;;;0.94;80.65
13705;BME280;6924;52.122;9.952;2023-04-07T03:00:50;100599.28;;;0.94;80.65
13705;BME280;6924;52.122;9.952;2023-04-07T03:03:16;100587.56;;;0.92;80.84
13705;BME280;6924;52.122;9.952;2023-04-07T03:05:42;100602.09;;;0.94;81.25
13705;BME280;6924;52.122;9.952;2023-04-07T03:08:09;100605.69;;;0.94;80.94
13705;BME280;6924;52.122;9.952;2023-04-07T03:10:35;100603.19;;;0.93;81.18
13705;BME280;6924;52.122;9.952;2023-04-07T03:13:03;100603.19;;;0.93;81.63
13705;BME280;6924;52.122;9.952;2023-04-07T03:15:30;100605.09;;;0.92;81.25
13705;BME280;6924;52.122;9.952;2023-04-07T03:17:56;100603.91;;;0.88;81.22
13705;BME280;6924;52.122;9.952;2023-04-07T03:20:23;100607.81;;;0.87;81.43
13705;BME280;6924;52.122;9.952;2023-04-07T03:22:49;100606.13;;;0.86;81.16
13705;BME280;6924;52.122;9.952;2023-04-07T03:25:15;100609.16;;;0.85;81.46
13705;BME280;6924;52.122;9.952;2023-04-07T03:27:42;100607.44;;;0.83;81.60
13705;BME280;6924;52.122;9.952;2023-04-07T03:30:10;100604.81;;;0.77;81.56
13705;BME280;6924;52.122;9.952;2023-04-07T03:32:37;100595.88;;;0.75;81.83
13705;BME280;6924;52.122;9.952;2023-04-07T03:35:04;100605.09;;;0.75;81.82
13705;BME280;6924;52.122;9.952;2023-04-07T03:37:30;100604.50;;;0.73;82.18
13705;BME280;6924;52.122;9.952;2023-04-07T03:39:56;100604.72;;;0.72;81.91
13705;BME280;6924;52.122;9.952;2023-04-07T03:42:23;100597.72;;;0.69;82.12
13705;BME280;6924;52.122;9.952;2023-04-07T03:44:50;100607.66;;;0.65;82.04
13705;BME280;6924;52.122;9.952;2023-04-07T03:47:17;100601.25;;;0.65;82.11
13705;BME280;6924;52.122;9.952;2023-04-07T03:49:44;100604.03;;;0.65;82.13
13705;BME280;6924;52.122;9.952;2023-04-07T03:52:10;100612.38;;;0.65;82.36
13705;BME280;6924;52.122;9.952;2023-04-07T03:54:37;100617.34;;;0.63;82.34
13705;BME280;6924;52.122;9.952;2023-04-07T03:57:03;100611.56;;;0.64;82.36
13705;BME280;6924;52.122;9.952;2023-04-07T03:59:30;100606.22;;;0.63;82.39
13705;BME280;6924;52.122;9.952;2023-04-07T04:01:56;100609.25;;;0.61;82.72
13705;BME280;6924;52.122;9.952;2023-04-07T04:04:24;100618.09;;;0.58;82.79
13705;BME280;6924;52.122;9.952;2023-04-07T04:06:50;100614.47;;;0.57;82.69
13705;BME280;6924;52.122;9.952;2023-04-07T04:09:17;100618.94;;;0.58;82.52
13705;BME280;6924;52.122;9.952;2023-04-07T04:11:45;100620.53;;;0.54;82.69
13705;BME280;6924;52.122;9.952;2023-04-07T04:14:11;100625.75;;;0.51;82.99
13705;BME280;6924;52.122;9.952;2023-04-07T04:16:37;100632.16;;;0.51;82.67
13705;BME280;6924;52.122;9.952;2023-04-07T04:19:05;100621.88;;;0.52;83.03
13705;BME280;6924;52.122;9.952;2023-04-07T04:21:33;100626.59;;;0.51;82.99
13705;BME280;6924;52.122;9.952;2023-04-07T04:24:00;100622.25;;;0.44;83.19
13705;BME280;6924;52.122;9.952;2023-04-07T04:26:26;100621.31;;;0.38;83.00
13705;BME280;6924;52.122;9.952;2023-04-07T04:28:53;100632.44;;;0.38;83.13
13705;BME280;6924;52.122;9.952;2023-04-07T04:31:20;100628.47;;;0.34;82.98
13705;BME280;6924;52.122;9.952;2023-04-07T04:33:46;100628.09;;;0.30;82.75
13705;BME280;6924;52.122;9.952;2023-04-07T04:36:13;100634.75;;;0.29;83.21
13705;BME280;6924;52.122;9.952;2023-04-07T04:38:41;100631.00;;;0.24;82.99
13705;BME280;6924;52.122;9.952;2023-04-07T04:41:07;100629.34;;;0.23;83.32
13705;BME280;6924;52.122;9.952;2023-04-07T04:43:33;100639.50;;;0.17;83.46
13705;BME280;6924;52.122;9.952;2023-04-07T04:46:00;100635.88;;;0.16;83.43
13705;BME280;6924;52.122;9.952;2023-04-07T04:48:26;100640.09;;;0.19;83.95
13705;BME280;6924;52.122;9.952;2023-04-07T04:50:53;100642.28;;;0.17;83.90
13705;BME280;6924;52.122;9.952;2023-04-07T04:53:19;100646.16;;;0.16;84.00
13705;BME280;6924;52.122;9.952;2023-04-07T04:55:47;100645.78;;;0.12;84.09
13705;BME280;6924;52.122;9.952;2023-04-07T04:58:16;100646.28;;;0.09;84.25
13705;BME280;6924;52.122;9.952;2023-04-07T05:00:43;100650.63;;;0.05;84.64
13705;BME280;6924;52.122;9.952;2023-04-07T05:03:09;100645.44;;;-0.03;84.39
13705;BME280;6924;52.122;9.952;2023-04-07T05:05:36;100646.88;;;-0.01;84.23
13705;BME280;6924;52.122;9.952;2023-04-07T05:08:02;100651.59;;;-0.01;84.60
13705;BME280;6924;52.122;9.952;2023-04-07T05:10:28;100649.94;;;-0.02;84.86
13705;BME280;6924;52.122;9.952;2023-04-07T05:12:56;100646.66;;;0.01;85.00
13705;BME280;6924;52.122;9.952;2023-04-07T05:15:22;100651.47;;;0.06;85.16
13705;BME280;6924;52.122;9.952;2023-04-07T05:17:49;100655.69;;;0.08;84.93
13705;BME280;6924;52.122;9.952;2023-04-07T05:20:15;100647.72;;;0.12;85.07
13705;BME280;6924;52.122;9.952;2023-04-07T05:22:42;100655.94;;;0.18;85.19
13705;BME280;6924;52.122;9.952;2023-04-07T05:25:09;100647.94;;;0.22;85.07
13705;BME280;6924;52.122;9.952;2023-04-07T05:27:35;100654.72;;;0.26;85.81
13705;BME280;6924;52.122;9.952;2023-04-07T05:30:04;100666.19;;;0.30;85.29
13705;BME280;6924;52.122;9.952;2023-04-07T05:32:31;100654.94;;;0.36;85.81
13705;BME280;6924;52.122;9.952;2023-04-07T05:34:57;100656.75;;;0.43;85.60
13705;BME280;6924;52.122;9.952;2023-04-07T05:37:24;100658.78;;;0.47;85.55
13705;BME280;6924;52.122;9.952;2023-04-07T05:39:50;100651.13;;;0.54;85.80
13705;BME280;6924;52.122;9.952;2023-04-07T05:42:16;100658.00;;;0.64;86.35
13705;BME280;6924;52.122;9.952;2023-04-07T05:44:43;100661.25;;;0.72;86.02
13705;BME280;6924;52.122;9.952;2023-04-07T05:47:11;100659.75;;;0.81;86.50
13705;BME280;6924;52.122;9.952;2023-04-07T05:49:38;100656.09;;;0.93;87.38
13705;BME280;6924;52.122;9.952;2023-04-07T05:52:09;100656.28;;;1.03;87.05
13705;BME280;6924;52.122;9.952;2023-04-07T05:54:36;100660.09;;;1.14;86.79
13705;BME280;6924;52.122;9.952;2023-04-07T05:57:04;100661.22;;;1.30;86.70
13705;BME280;6924;52.122;9.952;2023-04-07T05:59:31;100667.00;;;1.40;86.40
13705;BME280;6924;52.122;9.952;2023-04-07T06:01:57;100666.31;;;1.50;86.03
13705;BME280;6924;52.122;9.952;2023-04-07T06:04:25;100662.59;;;1.61;84.78
13705;BME280;6924;52.122;9.952;2023-04-07T06:06:52;100670.56;;;1.69;84.66
13705;BME280;6924;52.122;9.952;2023-04-07T06:09:19;100662.63;;;1.78;83.97
13705;BME280;6924;52.122;9.952;2023-04-07T06:11:46;100666.66;;;1.87;83.43
13705;BME280;6924;52.122;9.952;2023-04-07T06:14:12;100677.47;;;2.00;82.96
13705;BME280;6924;52.122;9.952;2023-04-07T06:16:39;100679.31;;;2.12;83.15
13705;BME280;6924;52.122;9.952;2023-04-07T06:19:05;100679.72;;;2.20;82.86
13705;BME280;6924;52.122;9.952;2023-04-07T06:21:33;100681.31;;;2.33;82.66
13705;BME280;6924;52.122;9.952;2023-04-07T06:24:00;100676.47;;;2.45;82.65
13705;BME280;6924;52.122;9.952;2023-04-07T06:26:26;100683.34;;;2.60;82.08
13705;BME280;6924;52.122;9.952;2023-04-07T06:28:53;100671.47;;;2.69;81.65
13705;BME280;6924;52.122;9.952;2023-04-07T06:31:19;100686.72;;;2.84;81.00
13705;BME280;6924;52.122;9.952;2023-04-07T06:33:46;100680.47;;;2.99;80.77
13705;BME280;6924;52.122;9.952;2023-04-07T06:36:12;100682.28;;;3.10;80.85
13705;BME280;6924;52.122;9.952;2023-04-07T06:38:40;100682.06;;;3.17;79.83
13705;BME280;6924;52.122;9.952;2023-04-07T06:41:06;100691.41;;;3.27;79.62
13705;BME280;6924;52.122;9.952;2023-04-07T06:43:36;100687.94;;;3.42;78.04
13705;BME280;6924;52.122;9.952;2023-04-07T06:46:02;100690.53;;;3.49;77.48
13705;BME280;6924;52.122;9.952;2023-04-07T06:48:29;100686.66;;;3.55;76.13
13705;BME280;6924;52.122;9.952;2023-04-07T06:50:55;100694.56;;;3.63;75.83
13705;BME280;6924;52.122;9.952;2023-04-07T06:53:21;100691.31;;;3.77;75.33
13705;BME280;6924;52.122;9.952;2023-04-07T06:55:49;100694.75;;;3.84;73.00
13705;BME280;6924;52.122;9.952;2023-04-07T06:58:16;100690.03;;;3.89;73.88
13705;BME280;6924;52.122;9.952;2023-04-07T07:00:42;100693.44;;;3.97;73.26
13705;BME280;6924;52.122;9.952;2023-04-07T07:03:09;100687.94;;;4.07;72.27
13705;BME280;6924;52.122;9.952;2023-04-07T07:05:35;100696.69;;;4.16;71.14
13705;BME280;6924;52.122;9.952;2023-04-07T07:08:01;100700.38;;;4.21;71.79
13705;BME280;6924;52.122;9.952;2023-04-07T07:10:28;100695.31;;;4.23;71.28
13705;BME280;6924;52.122;9.952;2023-04-07T07:12:56;100709.63;;;4.27;71.92
13705;BME280;6924;52.122;9.952;2023-04-07T07:15:22;100707.09;;;4.25;71.01
13705;BME280;6924;52.122;9.952;2023-04-07T07:17:49;100700.97;;;4.28;70.46
13705;BME280;6924;52.122;9.952;2023-04-07T07:20:15;100706.84;;;4.32;70.87
13705;BME280;6924;52.122;9.952;2023-04-07T07:22:42;100704.16;;;4.47;71.51
13705;BME280;6924;52.122;9.952;2023-04-07T07:25:08;100703.72;;;4.66;70.72
13705;BME280;6924;52.122;9.952;2023-04-07T07:27:35;100698.47;;;4.85;71.42
13705;BME280;6924;52.122;9.952;2023-04-07T07:30:04;100705.28;;;5.04;68.24
13705;BME280;6924;52.122;9.952;2023-04-07T07:32:30;100708.41;;;5.18;66.80
13705;BME280;6924;52.122;9.952;2023-04-07T07:34:57;100691.66;;;5.38;68.74
13705;BME280;6924;52.122;9.952;2023-04-07T07:37:24;100702.59;;;5.50;67.40
13705;BME280;6924;52.122;9.952;2023-04-07T07:39:50;100704.28;;;5.62;66.72
13705;BME280;6924;52.122;9.952;2023-04-07T07:42:17;100703.47;;;5.76;66.26
13705;BME280;6924;52.122;9.952;2023-04-07T07:44:43;100704.59;;;5.86;66.79
13705;BME280;6924;52.122;9.952;2023-04-07T07:47:12;100698.75;;;6.03;66.30
13705;BME280;6924;52.122;9.952;2023-04-07T07:49:39;100708.53;;;6.26;66.04
13705;BME280;6924;52.122;9.952;2023-04-07T07:52:06;100708.22;;;6.48;63.11
13705;BME280;6924;52.122;9.952;2023-04-07T07:54:32;100709.06;;;6.58;58.62
13705;BME280;6924;52.122;9.952;2023-04-07T07:56:59;100712.41;;;6.71;60.53
13705;BME280;6924;52.122;9.952;2023-04-07T07:59:27;100714.88;;;6.82;58.95
13705;BME280;6924;52.122;9.952;2023-04-07T08:01:53;100719.03;;;7.06;58.00
13705;BME280;6924;52.122;9.952;2023-04-07T08:04:21;100709.66;;;7.20;57.82
13705;BME280;6924;52.122;9.952;2023-04-07T08:06:48;100721.16;;;7.34;55.48
13705;BME280;6924;52.122;9.952;2023-04-07T08:09:15;100719.41;;;7.43;52.62
13705;BME280;6924;52.122;9.952;2023-04-07T08:11:41;100714.56;;;7.54;53.78
13705;BME280;6924;52.122;9.952;2023-04-07T08:14:08;100714.53;;;7.59;52.31
13705;BME280;6924;52.122;9.952;2023-04-07T08:16:34;100720.34;;;7.73;51.33
13705;BME280;6924;52.122;9.952;2023-04-07T08:19:01;100719.94;;;7.90;52.96
13705;BME280;6924;52.122;9.952;2023-04-07T08:21:29;100727.38;;;8.10;52.37
13705;BME280;6924;52.122;9.952;2023-04-07T08:23:56;100717.66;;;8.26;51.52
13705;BME280;6924;52.122;9.952;2023-04-07T08:26:22;100705.69;;;8.45;50.29
13705;BME280;6924;52.122;9.952;2023-04-07T08:28:49;100717.69;;;8.56;49.10
13705;BME280;6924;52.122;9.952;2023-04-07T08:31:16;100716.69;;;8.71;47.03
13705;BME280;6924;52.122;9.952;2023-04-07T08:33:43;100704.38;;;8.85;47.45
13705;BME280;6924;52.122;9.952;2023-04-07T08:36:09;100710.75;;;8.96;47.76
13705;BME280;6924;52.122;9.952;2023-04-07T08:38:37;100715.84;;;9.18;48.33
13705;BME280;6924;52.122;9.952;2023-04-07T08:41:09;100720.56;;;9.23;47.50
13705;BME280;6924;52.122;9.952;2023-04-07T08:43:37;100723.91;;;9.49;49.37
13705;BME280;6924;52.122;9.952;2023-04-07T08:46:04;100723.38;;;9.66;48.45
13705;BME280;6924;52.122;9.952;2023-04-07T08:48:33;100713.59;;;9.77;47.76
13705;BME280;6924;52.122;9.952;2023-04-07T08:51:04;100715.22;;;9.83;46.70
13705;BME280;6924;52.122;9.952;2023-04-07T08:53:35;100713.28;;;9.98;46.11
13705;BME280;6924;52.122;9.952;2023-04-07T08:56:05;100721.50;;;10.13;44.81
13705;BME280;6924;52.122;9.952;2023-04-07T08:58:32;100715.69;;;10.23;45.62
13705;BME280;6924;52.122;9.952;2023-04-07T09:00:58;100711.56;;;10.34;44.38
13705;BME280;6924;52.122;9.952;2023-04-07T09:03:25;100707.28;;;10.51;44.00
13705;BME280;6924;52.122;9.952;2023-04-07T09:05:52;100706.59;;;10.73;43.97
13705;BME280;6924;52.122;9.952;2023-04-07T09:08:20;100715.44;;;10.85;43.50
13705;BME280;6924;52.122;9.952;2023-04-07T09:10:46;100719.19;;;10.81;40.58
13705;BME280;6924;52.122;9.952;2023-04-07T09:13:14;100724.63;;;10.91;41.30
13705;BME280;6924;52.122;9.952;2023-04-07T09:15:41;100733.88;;;10.83;40.76
13705;BME280;6924;52.122;9.952;2023-04-07T09:18:08;100722.22;;;10.84;40.49
13705;BME280;6924;52.122;9.952;2023-04-07T09:20:54;100716.25;;;11.00;41.32
13705;BME280;6924;52.122;9.952;2023-04-07T09:23:26;100726.03;;;11.07;42.34
13705;BME280;6924;52.122;9.952;2023-04-07T09:25:54;100724.84;;;11.08;40.43
13705;BME280;6924;52.122;9.952;2023-04-07T09:28:22;100719.81;;;11.19;41.30
13705;BME280;6924;52.122;9.952;2023-04-07T09:30:52;100726.50;;;11.37;42.04
13705;BME280;6924;52.122;9.952;2023-04-07T09:33:26;100728.31;;;11.47;40.43
13705;BME280;6924;52.122;9.952;2023-04-07T09:35:53;100721.88;;;11.55;39.46
13705;BME280;6924;52.122;9.952;2023-04-07T09:38:19;100715.41;;;11.41;40.29
13705;BME280;6924;52.122;9.952;2023-04-07T09:40:46;100711.91;;;11.57;40.90
13705;BME280;6924;52.122;9.952;2023-04-07T09:43:14;100723.13;;;11.63;38.33
13705;BME280;6924;52.122;9.952;2023-04-07T09:45:43;100717.97;;;11.65;40.10
13705;BME280;6924;52.122;9.952;2023-04-07T09:48:17;100721.59;;;11.79;39.82
13705;BME280;6924;52.122;9.952;2023-04-07T09:50:44;100719.19;;;11.72;40.59
13705;BME280;6924;52.122;9.952;2023-04-07T09:53:13;100716.78;;;11.93;40.96
13705;BME280;6924;52.122;9.952;2023-04-07T09:55:41;100717.09;;;12.14;39.31
13705;BME280;6924;52.122;9.952;2023-04-07T09:58:11;100720.72;;;12.29;38.81
13705;BME280;6924;52.122;9.952;2023-04-07T10:00:38;100717.78;;;12.43;38.77
13705;BME280;6924;52.122;9.952;2023-04-07T10:03:07;100718.50;;;12.48;38.35
13705;BME280;6924;52.122;9.952;2023-04-07T10:05:35;100719.03;;;12.50;37.47
13705;BME280;6924;52.122;9.952;2023-04-07T10:08:03;100713.41;;;12.59;37.35
13705;BME280;6924;52.122;9.952;2023-04-07T10:10:31;100716.25;;;12.59;36.97
13705;BME280;6924;52.122;9.952;2023-04-07T10:12:58;100707.78;;;12.76;37.93
13705;BME280;6924;52.122;9.952;2023-04-07T10:15:24;100712.38;;;12.86;36.86
13705;BME280;6924;52.122;9.952;2023-04-07T10:17:52;100715.56;;;12.93;37.66
13705;BME280;6924;52.122;9.952;2023-04-07T10:20:22;100713.88;;;12.84;36.77
13705;BME280;6924;52.122;9.952;2023-04-07T10:22:51;100715.44;;;13.07;37.90
13705;BME280;6924;52.122;9.952;2023-04-07T10:25:20;100709.38;;;13.31;37.81
13705;BME280;6924;52.122;9.952;2023-04-07T10:27:49;100711.22;;;13.36;37.17
13705;BME280;6924;52.122;9.952;2023-04-07T10:30:21;100712.97;;;13.54;37.55
13705;BME280;6924;52.122;9.952;2023-04-07T10:32:51;100707.25;;;13.46;37.89
13705;BME280;6924;52.122;9.952;2023-04-07T10:35:18;100712.47;;;13.61;37.30
13705;BME280;6924;52.122;9.952;2023-04-07T10:38:12;100721.25;;;13.33;37.23
13705;BME280;6924;52.122;9.952;2023-04-07T10:40:40;100722.63;;;13.05;37.24
13705;BME280;6924;52.122;9.952;2023-04-07T10:43:08;100717.09;;;12.99;38.31
13705;BME280;6924;52.122;9.952;2023-04-07T10:45:52;100713.50;;;13.16;37.66
13705;BME280;6924;52.122;9.952;2023-04-07T10:48:21;100705.66;;;13.22;36.68
13705;BME280;6924;52.122;9.952;2023-04-07T10:51:21;100704.22;;;13.33;37.67
13705;BME280;6924;52.122;9.952;2023-04-07T10:54:22;100706.88;;;13.30;36.88
13705;BME280;6924;52.122;9.952;2023-04-07T10:57:20;100709.91;;;13.42;37.14
13705;BME280;6924;52.122;9.952;2023-04-07T11:00:13;100714.81;;;13.59;36.67
13705;BME280;6924;52.122;9.952;2023-04-07T11:02:40;100714.00;;;13.67;37.15
13705;BME280;6924;52.122;9.952;2023-04-07T11:05:06;100705.97;;;13.95;36.99
13705;BME280;6924;52.122;9.952;2023-04-07T11:07:50;100704.63;;;13.84;36.38
13705;BME280;6924;52.122;9.952;2023-04-07T11:10:20;100711.31;;;13.88;36.97
13705;BME280;6924;52.122;9.952;2023-04-07T11:12:58;100712.31;;;13.83;36.01
13705;BME280;6924;52.122;9.952;2023-04-07T11:15:25;100711.00;;;13.90;37.45
13705;BME280;6924;52.122;9.952;2023-04-07T11:18:13;100713.47;;;14.09;35.72
13705;BME280;6924;52.122;9.952;2023-04-07T11:20:41;100704.63;;;13.93;35.84
13705;BME280;6924;52.122;9.952;2023-04-07T11:23:08;100706.63;;;14.10;35.72
13705;BME280;6924;52.122;9.952;2023-04-07T11:25:36;100715.81;;;14.06;36.38
13705;BME280;6924;52.122;9.952;2023-04-07T11:28:03;100715.34;;;13.96;36.32
13705;BME280;6924;52.122;9.952;2023-04-07T11:30:29;100713.34;;;13.96;35.68
13705;BME280;6924;52.122;9.952;2023-04-07T11:32:56;100704.78;;;13.70;37.73
13705;BME280;6924;52.122;9.952;2023-04-07T11:35:24;100709.66;;;13.87;37.10
13705;BME280;6924;52.122;9.952;2023-04-07T11:37:56;100715.16;;;14.01;35.08
13705;BME280;6924;52.122;9.952;2023-04-07T11:40:33;100708.47;;;14.14;35.01
13705;BME280;6924;52.122;9.952;2023-04-07T11:43:02;100712.00;;;14.11;33.15
13705;BME280;6924;52.122;9.952;2023-04-07T11:45:40;100715.34;;;14.13;34.21
13705;BME280;6924;52.122;9.952;2023-04-07T11:48:25;100707.97;;;14.12;32.66
13705;BME280;6924;52.122;9.952;2023-04-07T11:50:51;100717.69;;;14.02;32.63
13705;BME280;6924;52.122;9.952;2023-04-07T11:53:24;100709.16;;;13.94;34.07
13705;BME280;6924;52.122;9.952;2023-04-07T11:55:58;100720.84;;;14.01;33.59
13705;BME280;6924;52.122;9.952;2023-04-07T11:58:26;100719.16;;;14.09;33.43
13705;BME280;6924;52.122;9.952;2023-04-07T12:00:53;100710.50;;;13.96;32.92
13705;BME280;6924;52.122;9.952;2023-04-07T12:03:20;100712.50;;;13.78;32.92
13705;BME280;6924;52.122;9.952;2023-04-07T12:05:46;100717.47;;;13.64;34.22
13705;BME280;6924;52.122;9.952;2023-04-07T12:08:13;100720.66;;;13.71;34.54
13705;BME280;6924;52.122;9.952;2023-04-07T12:10:41;100719.34;;;13.86;33.63
13705;BME280;6924;52.122;9.952;2023-04-07T12:13:07;100717.50;;;13.73;33.85
13705;BME280;6924;52.122;9.952;2023-04-07T12:15:35;100725.00;;;13.69;34.45
13705;BME280;6924;52.122;9.952;2023-04-07T12:18:02;100719.78;;;13.53;35.65
13705;BME280;6924;52.122;9.952;2023-04-07T12:20:29;100725.72;;;13.26;34.60
13705;BME280;6924;52.122;9.952;2023-04-07T12:22:56;100713.56;;;13.34;35.85
13705;BME280;6924;52.122;9.952;2023-04-07T12:25:23;100720.09;;;13.34;34.60
13705;BME280;6924;52.122;9.952;2023-04-07T12:27:49;100723.47;;;13.45;34.29
13705;BME280;6924;52.122;9.952;2023-04-07T12:30:16;100719.97;;;13.48;35.70
13705;BME280;6924;52.122;9.952;2023-04-07T12:32:43;100723.47;;;13.45;34.64
13705;BME280;6924;52.122;9.952;2023-04-07T12:35:10;100722.53;;;13.27;34.23
13705;BME280;6924;52.122;9.952;2023-04-07T12:37:36;100719.22;;;13.25;34.78
13705;BME280;6924;52.122;9.952;2023-04-07T12:40:03;100713.94;;;13.41;34.79
13705;BME280;6924;52.122;9.952;2023-04-07T12:42:30;100719.19;;;13.16;35.12
13705;BME280;6924;52.122;9.952;2023-04-07T12:44:56;100720.69;;;13.22;34.94
13705;BME280;6924;52.122;9.952;2023-04-07T12:47:23;100715.34;;;13.21;34.48
13705;BME280;6924;52.122;9.952;2023-04-07T12:49:50;100717.28;;;13.03;34.38
13705;BME280;6924;52.122;9.952;2023-04-07T12:52:17;100718.25;;;12.98;35.35
13705;BME280;6924;52.122;9.952;2023-04-07T12:54:43;100718.31;;;13.16;35.04
13705;BME280;6924;52.122;9.952;2023-04-07T12:57:10;100714.13;;;13.13;36.25
13705;BME280;6924;52.122;9.952;2023-04-07T12:59:36;100711.16;;;13.18;36.07
13705;BME280;6924;52.122;9.952;2023-04-07T13:02:03;100715.34;;;13.21;35.85
13705;BME280;6924;52.122;9.952;2023-04-07T13:04:30;100713.25;;;13.35;36.49
13705;BME280;6924;52.122;9.952;2023-04-07T13:06:57;100716.56;;;13.29;36.98
13705;BME280;6924;52.122;9.952;2023-04-07T13:09:27;100714.00;;;13.18;37.13
13705;BME280;6924;52.122;9.952;2023-04-07T13:11:53;100719.91;;;13.31;36.99